首页
METAR-TAF:

METAR-TAF

机场 :

拉奥罗拉国际机场

瓜地馬拉, 危地马拉

纬度: 14-35N, 经度: 090-31W, 海拔: 1489米

当前天气观测

该预报发布于36分钟前的12:00 UTC
风速4节,风向
温度 16°C
湿度 94%
气压 1027 hPa
能见度10公里或以上
少量云层高于800英尺
散云层高于20000英尺
少量云层高于8000英尺

METAR: MGGT 181200Z 36004KT 9999 FEW008 SCT200 16/15 Q1027 A3033 FEW080

时间: 06:36 (12:36 UTC)

预报

该预报发布于1小时和36分钟前的11:00 UTC
预报有效从18日的 12点(UTC)到 19日的 12点(UTC)
风速3节,风向多变
能见度10公里或以上
散云层高于1400英尺
成为
从 18日的 14点(UTC)到 18日的 16点(UTC)
风速14节,风向
能见度10公里或以上
散云层高于1800英尺
短暂存在
从 18日的 21点(UTC)到 19日的 02点(UTC)
能見度: 8000
散云层高于1800英尺, 塔状积云.
少量云层高于2500英尺, 积雨云.
附近有雷暴, 雨
成为
从 19日的 03点(UTC)到 19日的 05点(UTC)
风速3节,风向多变
散云层高于1400英尺
几率 30%
从 19日的 06点(UTC)到 19日的 12点(UTC)
能見度: 5000
多云层高于1200英尺
轻雾

TAF: MGGT 181100Z 1812/1912 VRB03KT 9999 SCT014 TX25/1820Z TN16/1812Z BECMG 1814/1816 36014KT 9999 SCT018 TEMPO 1821/1902 8000 VCTSRA SCT018TCU FEW025CB BECMG 1903/1905 VRB03KT SCT014 PROB30 1906/1912 5000 BR BKN012

超过4000个机场的气象观测和天气预报(METAR&TAF报告)。

可查询的气象台以黄色和红色小点在地图上表示。

将鼠标移到小点上方,可查看气象台名称。

然后点击查看天气观测和预报。

如需切换地图:点击带黑十字的绿色按钮放大地图;点击带横线的绿色按钮缩小地图;或者点击绿色箭头查看邻近地区的地图。


METAR-TAF: